Reva, South Dakota
Current Conditions -  °F | °C
As of 3:53 AM on Friday 28 Nov 2014 (Local Time) from KHEI Reporting Station
Broken Clouds Broken Clouds  
Wind Chill: 29°   Ceiling: 8000
Heat Index: 33°   Visibility: 10mi
Dew Point: 27°   Wind: 5mph
Humidity: 78%   Direction: NA
Pressure: 29.67"   Gusts: NA
Location:  45.55°N, 103.08°W
Report Text: KHEI 281053Z AUTO VRB04KT 10SM BKN080 BKN095 01/M03 A2967 RMK AO2 SLP074 T00061028
Loading
Personal Weather Stations






























Interactive Weather Map New forecast layout! Learn more

10-Day Weather Forecast

Advertisements
Track Severe Weather on mobile